Flight Briefing for CPX447

Departure Arrival
Salt Lake City International Airport (KSLC)
Click to view FAA NOTAMS
Minneapolis-St Paul International/Wold-Chamberlain Airport (KMSP)
Click to view FAA NOTAMS
Departure Time Arrival Time
N/A N/A
Aircraft Distance
B757-200SF 860nm
Departure METAR Arrival METAR
KSLC 192254Z 27011KT 10SM SCT030TCU BKN065 BKN180 M03/M11 A2996 RMK AO2 SLP167 TCU E AND SE VCSH T10331111 KMSP 192253Z 13007KT 10SM FEW200 M07/M14 A3039 RMK AO2 SLP310 T10721139
Suggested Route
RUGGD1 OCS CKW MBW BFF ANW SSWAN TORGY3


View recent IFR Routes data
Notes



Charts and Procedures

Charts for KSLC
No chart available
Charts for KMSP
No chart available

Ventusky Weather




{"cat":null,"equip":null,"transponder":null,"pbn":"PBN\/","maxpax":null,"oew":"0.0","mzfw":"0.0","mtow":"0.0","mlw":"0.0","maxfuel":"0.0"} DEVELOPMENTAL TEST USE ONLY